Time;durP1;ratioP1;P1;durP2;ratioP2;P2;SDS_P1;SDS_P2;PMS_P1;PMS_P2;Temp;Humidity;BMP_temperature;BMP_pressure;BME280_temperature;BME280_humidity;BME280_pressure;Samples;Min_cycle;Max_cycle;Signal;HPM_P1;HPM_P2
2022/10/31 00:00:16;;;;;;;1.48;0.28;;;18.10;65.00;;;;;;5071012;28;20131;-49
2022/10/31 00:02:43;;;;;;;1.33;0.30;;;18.10;65.10;;;;;;5070803;28;20163;-51
2022/10/31 00:05:12;;;;;;;0.43;0.20;;;18.00;65.20;;;;;;5071034;28;20071;-50
2022/10/31 00:07:39;;;;;;;2.95;0.75;;;18.00;65.20;;;;;;5070738;28;20045;-49
2022/10/31 00:10:08;;;;;;;1.38;0.32;;;18.00;65.30;;;;;;5070701;28;20085;-49
2022/10/31 00:12:34;;;;;;;4.18;0.52;;;17.90;65.30;;;;;;5070289;28;20040;-51
2022/10/31 00:15:02;;;;;;;0.80;0.47;;;17.90;65.40;;;;;;5070693;28;20521;-50
2022/10/31 00:17:29;;;;;;;1.48;0.20;;;17.90;65.50;;;;;;5070770;28;20540;-49
2022/10/31 00:19:56;;;;;;;2.70;0.30;;;17.80;65.50;;;;;;5070583;28;20044;-50
2022/10/31 00:22:25;;;;;;;5.50;2.15;;;17.80;66.20;;;;;;5070320;28;20128;-49
2022/10/31 00:24:52;;;;;;;2.15;0.60;;;17.80;65.80;;;;;;5056451;28;20599;-49
2022/10/31 00:27:19;;;;;;;0.95;0.57;;;17.70;65.90;;;;;;5069503;28;20087;-49
2022/10/31 00:29:47;;;;;;;3.55;0.50;;;17.70;66.00;;;;;;5068085;28;20051;-50
2022/10/31 00:32:14;;;;;;;3.63;0.85;;;17.70;66.10;;;;;;5068809;28;20040;-49
2022/10/31 00:34:41;;;;;;;0.57;0.30;;;17.70;66.20;;;;;;5069025;28;20044;-49
2022/10/31 00:37:08;;;;;;;0.60;0.50;;;17.60;66.20;;;;;;5069553;28;20060;-50
2022/10/31 00:39:37;;;;;;;2.45;0.93;;;17.60;66.20;;;;;;5069443;28;20115;-54
2022/10/31 00:42:04;;;;;;;3.08;1.02;;;17.60;66.30;;;;;;5068456;28;20086;-48
2022/10/31 00:44:31;;;;;;;1.05;0.32;;;17.60;66.30;;;;;;5068051;28;20040;-53
2022/10/31 00:46:59;;;;;;;1.80;0.63;;;17.50;66.40;;;;;;5068576;28;20041;-49
2022/10/31 00:49:26;;;;;;;2.88;0.32;;;17.50;66.40;;;;;;5069946;28;20044;-50
2022/10/31 00:51:53;;;;;;;1.52;0.40;;;17.50;66.40;;;;;;5068879;28;20974;-48
2022/10/31 00:54:20;;;;;;;1.90;0.38;;;17.50;66.50;;;;;;5068167;28;20052;-50
2022/10/31 00:56:48;;;;;;;0.85;0.38;;;17.50;66.50;;;;;;5067222;28;20420;-48
2022/10/31 00:59:15;;;;;;;1.33;1.23;;;17.40;66.60;;;;;;5068751;28;20037;-49
2022/10/31 01:01:42;;;;;;;1.50;0.85;;;17.40;66.70;;;;;;5068654;28;20045;-52
2022/10/31 01:04:09;;;;;;;3.63;0.40;;;17.40;66.60;;;;;;5069454;28;20041;-53
2022/10/31 01:06:36;;;;;;;1.27;0.30;;;17.40;66.70;;;;;;5070902;28;20124;-49
2022/10/31 01:09:03;;;;;;;2.10;0.30;;;17.40;66.80;;;;;;5076937;28;20058;-51
2022/10/31 01:11:30;;;;;;;0.70;0.32;;;17.30;66.80;;;;;;5074604;28;20167;-50
2022/10/31 01:13:59;;;;;;;0.77;0.20;;;17.30;66.90;;;;;;5054890;28;20068;-49
2022/10/31 01:16:29;;;;;;;2.10;0.30;;;17.30;67.00;;;;;;5067945;28;20123;-47
2022/10/31 01:18:57;;;;;;;3.55;0.50;;;17.30;67.00;;;;;;5068087;28;20047;-47
2022/10/31 01:21:28;;;;;;;3.75;0.63;;;17.30;67.10;;;;;;5068194;28;20052;-47
2022/10/31 01:23:58;;;;;;;2.45;0.52;;;17.30;67.10;;;;;;5067518;28;20048;-47
2022/10/31 01:26:28;;;;;;;0.35;0.20;;;17.30;67.10;;;;;;5067825;28;20044;-47
2022/10/31 01:28:57;;;;;;;1.40;0.77;;;17.30;67.20;;;;;;5069362;28;20033;-47
2022/10/31 01:31:27;;;;;;;2.65;0.30;;;17.30;67.20;;;;;;5069182;28;20050;-47
2022/10/31 01:33:54;;;;;;;2.28;0.38;;;17.40;67.20;;;;;;5068917;28;20075;-50
2022/10/31 01:36:23;;;;;;;2.70;0.30;;;17.40;67.20;;;;;;5069142;28;20060;-47
2022/10/31 01:38:56;;;;;;;0.93;0.30;;;17.40;67.20;;;;;;5067292;28;20053;-48
2022/10/31 01:41:26;;;;;;;0.95;0.57;;;17.30;67.20;;;;;;5068783;28;20535;-47
2022/10/31 01:43:55;;;;;;;4.65;1.13;;;17.30;67.20;;;;;;5067355;28;20079;-47
2022/10/31 01:46:28;;;;;;;0.52;0.40;;;17.30;67.20;;;;;;5048863;28;20122;-47
2022/10/31 01:48:56;;;;;;;0.85;0.38;;;17.30;67.30;;;;;;5047788;28;20122;-48
2022/10/31 01:51:29;;;;;;;0.45;0.40;;;17.30;67.30;;;;;;5054962;28;20060;-47
2022/10/31 01:54:00;;;;;;;4.45;0.85;;;17.30;67.30;;;;;;5066914;28;20052;-48
2022/10/31 01:56:28;;;;;;;1.98;0.30;;;17.30;67.40;;;;;;5067049;28;20040;-50
2022/10/31 01:58:57;;;;;;;0.50;0.20;;;17.30;67.40;;;;;;5068884;28;20519;-48
2022/10/31 02:01:26;;;;;;;1.50;0.30;;;17.30;67.40;;;;;;5068621;28;20048;-48
2022/10/31 02:03:53;;;;;;;2.20;0.50;;;17.30;67.40;;;;;;5068528;28;20642;-49
2022/10/31 02:06:30;;;;;;;2.10;0.50;;;17.30;67.40;;;;;;5066486;28;20048;-48
2022/10/31 02:08:58;;;;;;;3.08;0.40;;;17.30;67.50;;;;;;5067569;28;20091;-49
2022/10/31 02:11:26;;;;;;;2.25;0.50;;;17.20;67.50;;;;;;5068312;28;20052;-48
2022/10/31 02:13:53;;;;;;;0.55;0.20;;;17.30;67.50;;;;;;5067192;28;20504;-48
2022/10/31 02:16:22;;;;;;;1.95;0.63;;;17.30;67.60;;;;;;5067023;28;20153;-48
2022/10/31 02:18:52;;;;;;;2.45;0.40;;;17.30;67.60;;;;;;5068277;28;20152;-50
2022/10/31 02:21:25;;;;;;;5.85;0.45;;;17.20;67.60;;;;;;5066277;28;20992;-50
2022/10/31 02:24:11;;;;;;;1.20;0.28;;;17.30;67.70;;;;;;5067996;28;20076;-48
2022/10/31 02:26:59;;;;;;;2.10;0.93;;;17.30;67.80;;;;;;5066362;28;20143;-49
2022/10/31 02:30:08;;;;;;;2.20;0.38;;;17.30;67.70;;;;;;5066869;28;20113;-49
2022/10/31 02:32:57;;;;;;;1.58;0.28;;;17.30;67.70;;;;;;5060645;28;20052;-49
2022/10/31 02:35:34;;;;;;;4.05;0.30;;;17.30;67.80;;;;;;5045964;28;20091;-49
2022/10/31 02:38:03;;;;;;;;;;;17.30;67.80;;;;;;5054868;28;20578;-51
2022/10/31 02:40:36;;;;;;;2.08;0.40;;;17.20;67.60;;;;;;5046673;28;19924;-52
2022/10/31 02:43:32;;;;;;;0.55;0.30;;;17.20;67.90;;;;;;5040281;28;20057;-49
2022/10/31 02:46:03;;;;;;;1.98;0.43;;;17.20;67.90;;;;;;5047923;28;20044;-48
2022/10/31 02:48:38;;;;;;;2.08;0.75;;;17.30;68.00;;;;;;5046872;28;20056;-50
2022/10/31 02:51:06;;;;;;;3.30;0.35;;;17.30;68.00;;;;;;5052635;28;20091;-49
2022/10/31 02:53:37;;;;;;;2.30;0.73;;;17.30;68.00;;;;;;5046483;28;20044;-49
2022/10/31 02:56:09;;;;;;;2.83;0.50;;;17.30;67.90;;;;;;5046883;28;20043;-50
2022/10/31 02:58:39;;;;;;;1.40;0.60;;;17.30;67.90;;;;;;5062266;28;20132;-48
2022/10/31 03:01:50;;;;;;;1.85;0.63;;;17.30;67.90;;;;;;5072174;28;20074;-48
2022/10/31 03:04:49;;;;;;;2.17;0.40;;;17.30;67.80;;;;;;5086267;28;20478;-49
2022/10/31 03:07:24;;;;;;;1.20;0.50;;;17.30;67.90;;;;;;5086407;28;20131;-50
2022/10/31 03:09:58;;;;;;;2.67;0.45;;;17.30;68.00;;;;;;5085697;28;20059;-47
2022/10/31 03:12:31;;;;;;;3.05;0.30;;;17.30;68.10;;;;;;5067457;28;20538;-48
2022/10/31 03:15:12;;;;;;;5.63;0.85;;;17.30;68.10;;;;;;5067351;28;20075;-48
2022/10/31 03:17:49;;;;;;;4.05;0.43;;;17.30;68.10;;;;;;5046871;28;20043;-54
2022/10/31 03:20:23;;;;;;;2.40;0.80;;;17.30;68.10;;;;;;5056331;28;20040;-48
2022/10/31 03:22:51;;;;;;;4.72;0.80;;;17.30;68.20;;;;;;5059622;28;20382;-51
2022/10/31 03:25:19;;;;;;;3.10;0.65;;;17.30;68.20;;;;;;5069996;28;20050;-47
2022/10/31 03:27:48;;;;;;;1.52;1.08;;;17.40;68.30;;;;;;5072048;28;20052;-50
2022/10/31 03:30:16;;;;;;;1.63;0.45;;;17.40;68.30;;;;;;5072823;28;20036;-52
2022/10/31 03:33:01;;;;;;;0.95;0.50;;;17.40;68.40;;;;;;5071143;28;20591;-52
2022/10/31 03:35:33;;;;;;;6.50;0.60;;;17.40;68.40;;;;;;5070178;28;20040;-53
2022/10/31 03:38:03;;;;;;;0.60;0.40;;;17.40;68.40;;;;;;5070018;28;20053;-48
2022/10/31 03:40:32;;;;;;;1.30;0.60;;;17.40;68.40;;;;;;5070214;28;20102;-47
2022/10/31 03:43:04;;;;;;;3.42;0.82;;;17.40;68.50;;;;;;5070075;28;20040;-52
2022/10/31 03:45:36;;;;;;;3.70;0.52;;;17.40;68.50;;;;;;5069915;28;20056;-48
2022/10/31 03:48:04;;;;;;;4.28;0.57;;;17.40;68.50;;;;;;5069852;28;20047;-48
2022/10/31 03:50:41;;;;;;;2.13;0.55;;;17.40;68.50;;;;;;5069711;28;20094;-48
2022/10/31 03:53:14;;;;;;;3.77;0.60;;;17.40;68.60;;;;;;5071240;28;20465;-48
2022/10/31 03:55:47;;;;;;;2.80;0.43;;;17.40;68.60;;;;;;5069703;28;20049;-49
2022/10/31 03:58:20;;;;;;;4.80;1.90;;;17.40;68.70;;;;;;5069737;28;20064;-48
2022/10/31 04:00:50;;;;;;;2.15;1.42;;;17.40;68.70;;;;;;5069412;28;20102;-50
2022/10/31 04:03:21;;;;;;;2.35;1.08;;;17.40;68.80;;;;;;5069261;28;20389;-49
2022/10/31 04:05:55;;;;;;;3.58;1.10;;;17.40;68.80;;;;;;5069387;28;20076;-52
2022/10/31 04:08:26;;;;;;;2.65;1.40;;;17.40;68.90;;;;;;5069695;28;20049;-49
2022/10/31 04:10:57;;;;;;;3.17;1.15;;;17.50;68.90;;;;;;5052403;28;20117;-49
2022/10/31 04:13:27;;;;;;;3.47;1.48;;;17.50;69.00;;;;;;5050806;28;20413;-49
2022/10/31 04:16:10;;;;;;;3.80;1.52;;;17.50;69.00;;;;;;5049484;28;20033;-50
2022/10/31 04:18:37;;;;;;;3.33;1.08;;;17.50;69.00;;;;;;5049259;28;20049;-51
2022/10/31 04:21:08;;;;;;;7.15;1.20;;;17.50;69.00;;;;;;5065279;28;20048;-52
2022/10/31 04:23:36;;;;;;;2.85;1.65;;;17.50;69.00;;;;;;5069323;28;20075;-53
2022/10/31 04:26:24;;;;;;;4.80;0.95;;;17.50;69.00;;;;;;5070468;28;20082;-49
2022/10/31 04:28:51;;;;;;;4.63;1.00;;;17.50;68.90;;;;;;5069370;28;20044;-52
2022/10/31 04:31:19;;;;;;;2.95;1.20;;;17.50;68.90;;;;;;5068979;28;20492;-48
2022/10/31 04:33:48;;;;;;;1.77;1.00;;;17.50;68.90;;;;;;5052282;28;20439;-49
2022/10/31 04:36:16;;;;;;;3.28;2.08;;;17.50;68.90;;;;;;5068741;28;20052;-48
2022/10/31 04:38:44;;;;;;;2.85;0.90;;;17.50;68.90;;;;;;5068904;28;20048;-52
2022/10/31 04:41:27;;;;;;;6.07;1.42;;;17.50;69.00;;;;;;5069070;28;20512;-52
2022/10/31 04:43:59;;;;;;;2.22;1.35;;;17.50;69.00;;;;;;5068739;28;20048;-48
2022/10/31 04:46:28;;;;;;;6.07;1.17;;;17.50;69.10;;;;;;5068446;28;20072;-49
2022/10/31 04:48:56;;;;;;;1.35;1.00;;;17.50;69.10;;;;;;5048873;28;20047;-51
2022/10/31 04:51:25;;;;;;;9.95;1.67;;;17.50;69.10;;;;;;5067079;28;20052;-48
2022/10/31 04:53:53;;;;;;;2.92;1.52;;;17.40;69.10;;;;;;5068792;28;20037;-48
2022/10/31 04:56:43;;;;;;;3.65;0.98;;;17.50;69.20;;;;;;5047149;28;20053;-51
2022/10/31 04:59:15;;;;;;;4.05;1.75;;;17.40;69.10;;;;;;5030061;28;20052;-49
2022/10/31 05:01:50;;;;;;;4.45;1.20;;;17.40;69.20;;;;;;5046845;28;20053;-52
2022/10/31 05:04:22;;;;;;;2.40;1.33;;;17.40;69.20;;;;;;5046984;28;20056;-50
2022/10/31 05:06:50;;;;;;;1.88;1.05;;;17.50;69.30;;;;;;5046638;28;20049;-48
2022/10/31 05:09:17;;;;;;;7.10;1.80;;;17.50;69.20;;;;;;5030283;28;20094;-51
2022/10/31 05:11:44;;;;;;;5.40;2.15;;;17.50;69.20;;;;;;5046739;28;20121;-52
2022/10/31 05:14:37;;;;;;;5.43;1.90;;;17.50;69.20;;;;;;4987311;28;20507;-51
2022/10/31 05:17:23;;;;;;;1.77;1.20;;;17.50;69.20;;;;;;4971358;28;20054;-51
2022/10/31 05:20:10;;;;;;;4.30;1.52;;;17.50;69.20;;;;;;4970909;28;20143;-50
2022/10/31 05:22:58;;;;;;;6.07;1.65;;;17.60;69.20;;;;;;4988888;28;20056;-53
2022/10/31 05:25:27;;;;;;;2.72;1.83;;;17.60;69.00;;;;;;4987484;28;20153;-50
2022/10/31 05:27:55;;;;;;;5.88;1.23;;;17.60;68.80;;;;;;4987397;28;20057;-49
2022/10/31 05:30:25;;;;;;;2.78;1.17;;;17.60;68.60;;;;;;4986878;28;20054;-48
2022/10/31 05:32:53;;;;;;;3.08;1.55;;;17.60;68.50;;;;;;4956450;28;20565;-52
2022/10/31 05:35:39;;;;;;;6.03;1.58;;;17.60;68.40;;;;;;5006741;28;20049;-48
2022/10/31 05:38:25;;;;;;;2.60;1.33;;;17.70;68.40;;;;;;5006680;28;20050;-51
2022/10/31 05:40:57;;;;;;;1.77;1.58;;;17.70;68.40;;;;;;5006810;28;20462;-47
2022/10/31 05:43:24;;;;;;;6.72;1.65;;;17.70;68.30;;;;;;5006152;28;20179;-49
2022/10/31 05:45:53;;;;;;;4.90;2.78;;;17.70;68.20;;;;;;5006088;28;20847;-49
2022/10/31 05:48:40;;;;;;;2.83;1.95;;;17.70;68.10;;;;;;5006191;28;20046;-50
2022/10/31 05:51:25;;;;;;;6.60;1.23;;;17.70;68.10;;;;;;5031800;28;20076;-48
2022/10/31 05:53:54;;;;;;;1.52;1.00;;;17.70;68.10;;;;;;5069054;28;20076;-50
2022/10/31 05:56:22;;;;;;;2.05;1.55;;;17.70;68.10;;;;;;5067508;28;20076;-49
2022/10/31 05:58:49;;;;;;;3.40;1.55;;;17.70;68.00;;;;;;5067975;28;20051;-54
2022/10/31 06:01:16;;;;;;;10.40;1.77;;;17.80;68.00;;;;;;5069292;28;20044;-53
2022/10/31 06:03:46;;;;;;;3.08;1.30;;;17.80;68.00;;;;;;5067946;28;20045;-52
2022/10/31 06:06:16;;;;;;;4.63;1.38;;;17.70;67.90;;;;;;5067478;28;20055;-49
2022/10/31 06:08:43;;;;;;;3.55;1.35;;;17.70;67.80;;;;;;5065243;28;20051;-47
2022/10/31 06:11:17;;;;;;;2.78;1.42;;;17.70;67.70;;;;;;5051837;28;20036;-48
2022/10/31 06:14:10;;;;;;;8.10;2.70;;;17.70;67.70;;;;;;5035961;28;20051;-51
2022/10/31 06:16:52;;;;;;;5.55;1.48;;;17.80;67.80;;;;;;5022015;28;20064;-52
2022/10/31 06:19:42;;;;;;;7.13;1.60;;;17.80;67.80;;;;;;5036761;28;20053;-51
2022/10/31 06:22:12;;;;;;;3.45;1.30;;;17.70;67.70;;;;;;5020814;28;20148;-52
2022/10/31 06:24:39;;;;;;;2.65;1.00;;;17.70;67.60;;;;;;5027501;28;20583;-48
2022/10/31 06:27:27;;;;;;;2.53;0.68;;;17.70;67.60;;;;;;5018983;28;20530;-48
2022/10/31 06:29:55;;;;;;;3.45;0.60;;;17.70;67.60;;;;;;5004637;28;20088;-48
2022/10/31 06:32:32;;;;;;;4.03;0.98;;;17.70;67.50;;;;;;5019306;28;20049;-49
2022/10/31 06:34:59;;;;;;;3.45;1.48;;;17.70;67.50;;;;;;5019108;28;20057;-53
2022/10/31 06:37:26;;;;;;;4.35;1.65;;;17.70;67.40;;;;;;5019580;28;20128;-47
2022/10/31 06:39:59;;;;;;;1.95;1.35;;;17.70;67.40;;;;;;5020260;28;20119;-51
2022/10/31 06:42:28;;;;;;;8.82;1.33;;;17.70;67.40;;;;;;5039946;28;20059;-54
2022/10/31 06:44:55;;;;;;;2.97;1.08;;;17.70;67.30;;;;;;5043291;28;20057;-52
2022/10/31 06:47:40;;;;;;;8.35;1.75;;;17.70;67.40;;;;;;5042813;28;20085;-64
2022/10/31 06:50:11;;;;;;;2.85;0.95;;;17.70;67.50;;;;;;5015935;28;20053;-52
2022/10/31 06:52:38;;;;;;;1.83;1.73;;;17.60;67.60;;;;;;5060269;28;20421;-51
2022/10/31 06:55:06;;;;;;;0.80;0.63;;;17.60;67.70;;;;;;5061631;28;20158;-52
2022/10/31 06:57:35;;;;;;;1.40;1.23;;;17.60;68.40;;;;;;5066273;28;20082;-63
2022/10/31 07:00:03;;;;;;;4.55;0.95;;;17.80;68.00;;;;;;5069306;28;20051;-58
2022/10/31 07:02:39;;;;;;;8.07;0.60;;;17.90;67.80;;;;;;5059697;28;20036;-63
2022/10/31 07:05:07;;;;;;;4.20;1.10;;;18.00;67.60;;;;;;5066901;28;20052;-73
2022/10/31 07:07:34;;;;;;;7.47;2.08;;;18.10;67.40;;;;;;5066999;28;20036;-61
2022/10/31 07:10:01;;;;;;;4.22;0.93;;;18.20;67.20;;;;;;5076450;28;20068;-60
2022/10/31 07:12:48;;;;;;;5.80;1.85;;;18.30;66.90;;;;;;5046235;28;20406;-65
2022/10/31 07:15:16;;;;;;;3.25;1.35;;;18.40;66.70;;;;;;5065192;28;20044;-61
2022/10/31 07:17:43;;;;;;;4.38;1.17;;;18.50;66.50;;;;;;5065378;28;20064;-62
2022/10/31 07:20:11;;;;;;;4.85;1.00;;;18.60;66.40;;;;;;5065233;28;20111;-62
2022/10/31 07:22:39;;;;;;;3.67;0.93;;;18.60;66.20;;;;;;5065238;28;20090;-61
2022/10/31 07:25:09;;;;;;;4.40;1.27;;;18.70;66.00;;;;;;5064913;28;20052;-58
2022/10/31 07:27:37;;;;;;;6.32;0.90;;;18.80;65.90;;;;;;5062974;28;20369;-61
2022/10/31 07:30:08;;;;;;;4.68;0.77;;;18.90;65.80;;;;;;5074749;28;20533;-62
2022/10/31 07:32:39;;;;;;;7.97;1.08;;;18.90;65.60;;;;;;5071917;28;20048;-61
2022/10/31 07:35:07;;;;;;;2.45;1.17;;;19.00;65.40;;;;;;5064415;28;20421;-60
2022/10/31 07:37:46;;;;;;;2.75;1.27;;;19.00;65.30;;;;;;5064989;28;20060;-64
2022/10/31 07:40:15;;;;;;;4.55;1.40;;;19.10;65.20;;;;;;5065463;28;20068;-64
2022/10/31 07:42:44;;;;;;;4.97;1.02;;;19.20;65.10;;;;;;5046000;28;20875;-58
2022/10/31 07:45:33;;;;;;;4.88;1.52;;;19.30;64.90;;;;;;5052657;28;20052;-69
2022/10/31 07:48:29;;;;;;;4.97;1.20;;;19.30;64.70;;;;;;5035746;28;20077;-70
2022/10/31 07:51:15;;;;;;;4.50;1.67;;;19.40;64.60;;;;;;5044355;28;20073;-71
2022/10/31 07:54:08;;;;;;;3.72;0.90;;;19.40;64.40;;;;;;4987019;28;20054;-75
2022/10/31 07:56:35;;;;;;;7.93;1.83;;;19.40;64.30;;;;;;4985899;28;20145;-71
2022/10/31 07:59:02;;;;;;;5.30;1.80;;;19.50;64.10;;;;;;4984596;28;20051;-68
2022/10/31 08:01:31;;;;;;;7.28;1.98;;;19.60;64.00;;;;;;4971169;28;20061;-71
2022/10/31 08:04:28;;;;;;;5.38;1.35;;;19.60;63.80;;;;;;4985489;28;20058;-62
2022/10/31 08:07:14;;;;;;;4.32;1.13;;;19.60;63.60;;;;;;4988380;28;20050;-64
2022/10/31 08:09:46;;;;;;;7.32;3.95;;;19.70;63.60;;;;;;4972135;28;20154;-57
2022/10/31 08:12:20;;;;;;;5.40;1.70;;;19.70;63.50;;;;;;4981433;28;20097;-59
2022/10/31 08:14:47;;;;;;;9.07;3.03;;;19.80;63.40;;;;;;4991504;28;20050;-62
2022/10/31 08:17:18;;;;;;;4.45;2.13;;;19.80;63.20;;;;;;4973683;28;20054;-65
2022/10/31 08:19:51;;;;;;;3.38;1.30;;;19.80;63.10;;;;;;4985774;28;20066;-65
2022/10/31 08:22:21;;;;;;;6.32;1.30;;;19.90;63.90;;;;;;4972494;28;20105;-65
2022/10/31 08:24:49;;;;;;;9.13;1.75;;;20.00;64.40;;;;;;4980246;28;20108;-66
2022/10/31 08:27:17;;;;;;;2.10;0.98;;;20.30;64.40;;;;;;5009491;28;20077;-66
2022/10/31 08:29:44;;;;;;;1.75;1.00;;;20.50;64.20;;;;;;4992849;28;20077;-66
2022/10/31 08:32:11;;;;;;;4.47;1.55;;;20.70;63.80;;;;;;5063649;28;20060;-64
2022/10/31 08:34:58;;;;;;;9.83;2.33;;;20.90;63.50;;;;;;5068748;28;20078;-66
2022/10/31 08:37:44;;;;;;;8.07;1.42;;;21.10;63.10;;;;;;5056004;28;20644;-65
2022/10/31 08:40:12;;;;;;;3.90;1.08;;;21.20;62.60;;;;;;5070580;28;20122;-62
2022/10/31 08:42:41;;;;;;;5.95;1.98;;;21.40;62.20;;;;;;5069308;28;20068;-66
2022/10/31 08:45:08;;;;;;;4.93;1.27;;;21.50;61.80;;;;;;5069052;28;20135;-66
2022/10/31 08:47:36;;;;;;;5.93;1.30;;;21.60;61.50;;;;;;5069269;28;20046;-66
2022/10/31 08:50:05;;;;;;;4.15;1.23;;;21.70;61.10;;;;;;5068977;28;20534;-66
2022/10/31 08:52:32;;;;;;;4.55;1.15;;;21.90;60.70;;;;;;5070087;28;20416;-65
2022/10/31 08:55:02;;;;;;;3.58;0.93;;;21.90;60.40;;;;;;5068929;28;20133;-66
2022/10/31 08:57:48;;;;;;;2.27;1.17;;;22.00;60.10;;;;;;5070338;28;20734;-66
2022/10/31 09:00:15;;;;;;;3.20;1.38;;;22.10;59.90;;;;;;5069151;28;20973;-66
2022/10/31 09:03:02;;;;;;;;;;;22.20;59.60;;;;;;5049726;28;20179;-66
2022/10/31 09:05:34;;;;;;;8.98;1.55;;;22.20;59.60;;;;;;5048828;28;19963;-66
2022/10/31 09:08:03;;;;;;;2.35;1.65;;;22.30;59.40;;;;;;5048811;28;20174;-67
2022/10/31 09:10:32;;;;;;;3.90;0.98;;;22.40;59.50;;;;;;5059503;28;20067;-66
2022/10/31 09:13:00;;;;;;;1.80;0.90;;;22.50;58.80;;;;;;5069074;28;20045;-65
2022/10/31 09:15:29;;;;;;;4.57;2.13;;;22.50;59.20;;;;;;5070325;28;20048;-66
2022/10/31 09:18:14;;;;;;;1.95;0.80;;;22.60;58.40;;;;;;5068341;28;20502;-66
2022/10/31 09:20:59;;;;;;;3.60;0.93;;;22.70;58.30;;;;;;5073441;28;20040;-65
2022/10/31 09:23:28;;;;;;;4.40;1.00;;;22.70;58.10;;;;;;5068307;28;20048;-66
2022/10/31 09:25:55;;;;;;;4.68;0.90;;;22.70;57.90;;;;;;5069519;28;20040;-65
2022/10/31 09:28:41;;;;;;;3.92;1.00;;;22.80;57.80;;;;;;5048536;28;20049;-67
2022/10/31 09:31:10;;;;;;;10.07;2.10;;;22.90;57.70;;;;;;5048420;28;20119;-64
2022/10/31 09:34:16;;;;;;;8.32;1.50;;;22.90;57.50;;;;;;5044991;28;20110;-65
2022/10/31 09:36:48;;;;;;;2.67;1.30;;;23.00;57.40;;;;;;5047363;28;20521;-65
2022/10/31 09:39:20;;;;;;;3.38;1.00;;;23.00;57.20;;;;;;5066851;28;20083;-65
2022/10/31 09:42:12;;;;;;;4.00;1.40;;;23.10;57.10;;;;;;5067933;28;20044;-65
2022/10/31 09:44:49;;;;;;;7.20;0.95;;;23.10;56.80;;;;;;5068190;28;20125;-64
2022/10/31 09:47:32;;;;;;;2.70;1.23;;;23.20;56.70;;;;;;5068066;28;20106;-66
2022/10/31 09:50:30;;;;;;;9.50;1.63;;;23.20;56.70;;;;;;5025695;28;20060;-66
2022/10/31 09:53:11;;;;;;;4.23;1.33;;;23.20;56.50;;;;;;5010522;28;20072;-65
2022/10/31 09:55:42;;;;;;;2.67;1.45;;;23.30;56.40;;;;;;5010143;28;20518;-64
2022/10/31 09:58:15;;;;;;;8.68;1.80;;;23.30;56.40;;;;;;5026538;28;20057;-65
2022/10/31 10:00:44;;;;;;;5.60;1.58;;;23.40;56.30;;;;;;5026331;28;20130;-65
2022/10/31 10:03:20;;;;;;;3.65;1.33;;;23.40;56.20;;;;;;4993668;28;20107;-66
2022/10/31 10:05:55;;;;;;;5.10;1.45;;;23.50;56.20;;;;;;5025677;28;20478;-65
2022/10/31 10:08:36;;;;;;;9.93;1.83;;;23.50;56.10;;;;;;5009710;28;20049;-65
2022/10/31 10:11:47;;;;;;;6.25;1.80;;;23.60;56.10;;;;;;5026256;28;20088;-65
2022/10/31 10:14:34;;;;;;;6.93;1.60;;;23.60;55.90;;;;;;5026359;28;20057;-65
2022/10/31 10:17:18;;;;;;;9.88;1.85;;;23.70;55.60;;;;;;5009664;28;20049;-65
2022/10/31 10:19:59;;;;;;;2.05;1.88;;;23.70;55.40;;;;;;5025740;28;20124;-65
2022/10/31 10:22:36;;;;;;;4.93;1.52;;;23.80;55.20;;;;;;5025875;28;20604;-66
2022/10/31 10:25:20;;;;;;;6.50;1.67;;;23.90;55.20;;;;;;5009708;28;20073;-66
2022/10/31 10:27:56;;;;;;;3.90;1.40;;;23.90;55.00;;;;;;5054032;28;20135;-65
2022/10/31 10:30:31;;;;;;;2.35;1.50;;;23.90;55.00;;;;;;5068887;28;20252;-65
2022/10/31 10:33:00;;;;;;;5.70;1.88;;;23.90;54.90;;;;;;5067298;28;20143;-65
2022/10/31 10:35:32;;;;;;;3.28;1.30;;;24.00;54.80;;;;;;5068161;28;20044;-64
2022/10/31 10:38:09;;;;;;;6.00;1.15;;;24.00;54.70;;;;;;5065771;28;20133;-64
2022/10/31 10:40:38;;;;;;;5.50;2.17;;;24.10;54.60;;;;;;5064983;28;20032;-64
2022/10/31 10:43:22;;;;;;;5.22;1.35;;;24.10;55.00;;;;;;5068445;28;20037;-65
2022/10/31 10:49:01;;;;;;;5.95;1.20;;;24.20;54.00;;;;;;5068117;28;20493;-65
2022/10/31 10:51:37;;;;;;;6.15;0.88;;;24.20;53.90;;;;;;5068130;28;20048;-63
2022/10/31 10:54:13;;;;;;;;;;;24.20;53.60;;;;;;5069127;28;20068;-64
2022/10/31 10:56:57;;;;;;;5.05;1.10;;;24.20;53.90;;;;;;5068600;28;19929;-65
2022/10/31 10:59:24;;;;;;;9.10;1.02;;;24.30;53.70;;;;;;5068544;28;20542;-66
2022/10/31 11:01:52;;;;;;;2.92;0.82;;;24.30;53.60;;;;;;5068303;28;20044;-66
2022/10/31 11:04:27;;;;;;;2.90;1.48;;;24.40;54.10;;;;;;5068147;28;20068;-65
2022/10/31 11:07:05;;;;;;;4.43;1.45;;;24.40;53.30;;;;;;5067791;28;20135;-64
2022/10/31 11:09:33;;;;;;;7.38;1.27;;;24.50;53.20;;;;;;5068353;28;20044;-65
2022/10/31 11:12:09;;;;;;;3.60;1.05;;;24.50;53.10;;;;;;5067971;28;20037;-65
2022/10/31 11:14:43;;;;;;;2.83;0.90;;;24.60;53.00;;;;;;5068288;28;20064;-64
2022/10/31 11:17:18;;;;;;;3.50;1.42;;;24.60;52.90;;;;;;5067641;28;20072;-64
2022/10/31 11:19:45;;;;;;;2.95;1.17;;;24.70;52.90;;;;;;5068282;28;20672;-65
2022/10/31 11:22:17;;;;;;;5.60;1.45;;;24.70;52.80;;;;;;5067950;28;20047;-64
2022/10/31 11:24:45;;;;;;;1.50;0.88;;;24.80;52.70;;;;;;5077193;28;20040;-65
2022/10/31 11:27:21;;;;;;;2.55;1.05;;;24.80;52.60;;;;;;5084380;28;20451;-63
2022/10/31 11:29:48;;;;;;;;;;;24.90;52.50;;;;;;5068716;28;20443;-64
2022/10/31 11:32:21;;;;;;;5.78;2.53;;;24.90;52.60;;;;;;5067499;28;20377;-65
2022/10/31 11:34:52;;;;;;;2.60;1.15;;;24.90;52.40;;;;;;5068121;28;20044;-64
2022/10/31 11:37:22;;;;;;;7.47;0.98;;;25.00;52.30;;;;;;5067458;28;20056;-64
2022/10/31 11:39:54;;;;;;;5.68;1.10;;;25.00;52.20;;;;;;5068507;28;20056;-65
2022/10/31 11:42:25;;;;;;;2.88;1.10;;;25.20;52.10;;;;;;5071925;28;20715;-64
2022/10/31 11:44:55;;;;;;;3.22;1.73;;;25.20;52.00;;;;;;5071947;28;20044;-64
2022/10/31 11:47:27;;;;;;;1.83;0.82;;;25.20;51.80;;;;;;5071438;28;20044;-64
2022/10/31 11:49:54;;;;;;;5.20;0.68;;;25.30;51.70;;;;;;5071589;28;20048;-65
2022/10/31 11:52:24;;;;;;;4.10;1.20;;;25.30;51.60;;;;;;5071401;28;20039;-63
2022/10/31 11:54:55;;;;;;;3.72;1.13;;;25.30;51.50;;;;;;5071517;28;20167;-65
2022/10/31 11:57:29;;;;;;;7.70;1.52;;;25.40;51.40;;;;;;5071555;28;20051;-64
2022/10/31 11:59:58;;;;;;;1.75;0.65;;;25.50;51.30;;;;;;5071538;28;20424;-65
2022/10/31 12:02:25;;;;;;;7.88;1.08;;;25.50;51.20;;;;;;5070463;28;20471;-65
2022/10/31 12:05:00;;;;;;;3.38;0.80;;;25.60;51.20;;;;;;5068673;28;20045;-65
2022/10/31 12:07:27;;;;;;;3.25;0.68;;;25.60;51.00;;;;;;5071354;28;20131;-66
2022/10/31 12:09:55;;;;;;;8.60;0.85;;;25.60;51.00;;;;;;5071209;28;20128;-65
2022/10/31 12:12:40;;;;;;;7.22;0.70;;;25.70;50.90;;;;;;5071549;28;20127;-63
2022/10/31 12:15:27;;;;;;;3.83;1.25;;;25.70;50.80;;;;;;5071121;28;20041;-66
2022/10/31 12:18:02;;;;;;;2.83;2.38;;;25.70;50.70;;;;;;5071347;28;20409;-63
2022/10/31 12:20:38;;;;;;;3.70;0.32;;;25.80;50.70;;;;;;5069949;28;20051;-63
2022/10/31 12:23:14;;;;;;;2.45;0.70;;;25.80;50.60;;;;;;5070913;28;20518;-63
2022/10/31 12:25:46;;;;;;;4.03;0.70;;;25.80;50.40;;;;;;5070881;28;20463;-63
2022/10/31 12:28:44;;;;;;;3.45;0.75;;;25.90;50.40;;;;;;5071061;28;20040;-63
2022/10/31 12:31:24;;;;;;;4.30;0.73;;;25.90;50.30;;;;;;5069195;28;20154;-63
2022/10/31 12:34:02;;;;;;;3.55;1.00;;;26.00;50.30;;;;;;5071268;28;20128;-64
2022/10/31 12:36:38;;;;;;;1.60;0.68;;;26.00;50.20;;;;;;5070598;28;20578;-63
2022/10/31 12:39:35;;;;;;;0.93;0.52;;;26.00;50.20;;;;;;5069107;28;20400;-63
2022/10/31 12:42:10;;;;;;;4.05;0.52;;;26.00;50.00;;;;;;5069301;28;20059;-63
2022/10/31 12:44:55;;;;;;;;;;;26.10;50.10;;;;;;5070921;28;20071;-63
2022/10/31 12:47:38;;;;;;;7.20;0.82;;;26.10;50.20;;;;;;5070214;28;19958;-62
2022/10/31 12:50:21;;;;;;;2.75;0.90;;;26.10;50.10;;;;;;5070608;28;20079;-63
2022/10/31 12:52:58;;;;;;;2.33;0.47;;;26.20;50.00;;;;;;5069119;28;20049;-64
2022/10/31 12:55:38;;;;;;;2.88;0.57;;;26.20;49.90;;;;;;5070489;28;20045;-64
2022/10/31 12:58:11;;;;;;;4.60;0.82;;;26.30;49.90;;;;;;5070731;28;20044;-65
2022/10/31 13:00:43;;;;;;;5.55;2.33;;;26.30;49.80;;;;;;5070047;28;20109;-63
2022/10/31 13:03:23;;;;;;;2.30;1.27;;;26.30;49.70;;;;;;5070344;28;20547;-63
2022/10/31 13:05:54;;;;;;;2.15;0.70;;;26.30;49.60;;;;;;5070471;28;20054;-63
2022/10/31 13:08:25;;;;;;;5.38;1.27;;;26.30;49.60;;;;;;5070496;28;20417;-63
2022/10/31 13:10:58;;;;;;;2.83;1.20;;;26.30;49.60;;;;;;5070619;28;20496;-64
2022/10/31 13:13:28;;;;;;;1.42;0.40;;;26.30;49.50;;;;;;5069749;28;20560;-63
2022/10/31 13:15:58;;;;;;;4.47;0.60;;;26.30;49.50;;;;;;5078650;28;20048;-64
2022/10/31 13:18:31;;;;;;;7.05;1.00;;;26.40;49.40;;;;;;5089004;28;20093;-65
2022/10/31 13:21:00;;;;;;;4.70;1.25;;;26.50;49.40;;;;;;5074955;28;20037;-64
2022/10/31 13:23:30;;;;;;;1.95;0.90;;;26.50;49.30;;;;;;5069804;28;20051;-64